createdAt,value
2018-09-26T00:01:40.260Z,5.23
2018-09-26T00:04:11.256Z,4.40
2018-09-26T00:06:39.620Z,5.17
2018-09-26T00:09:10.424Z,5.70
2018-09-26T00:11:38.941Z,5.30
2018-09-26T00:14:07.328Z,4.37
2018-09-26T00:16:35.874Z,6.20
2018-09-26T00:19:04.275Z,5.00
2018-09-26T00:21:32.624Z,4.60
2018-09-26T00:24:00.977Z,4.30
2018-09-26T00:26:29.318Z,5.57
2018-09-26T00:28:57.660Z,4.43
2018-09-26T00:31:26.137Z,5.60
2018-09-26T00:33:54.497Z,4.77
2018-09-26T00:36:22.890Z,4.43
2018-09-26T00:38:51.269Z,4.33
2018-09-26T00:41:19.604Z,4.40
2018-09-26T00:43:48.156Z,5.10
2018-09-26T00:46:16.464Z,4.77
2018-09-26T00:48:44.837Z,4.30
2018-09-26T00:51:13.147Z,5.30
2018-09-26T00:53:41.505Z,4.60
2018-09-26T00:56:09.824Z,5.20
2018-09-26T00:58:38.180Z,4.97
2018-09-26T01:01:06.516Z,5.10
2018-09-26T01:03:34.848Z,6.10
2018-09-26T01:06:03.167Z,6.00
2018-09-26T01:08:31.494Z,6.17
2018-09-26T01:10:59.807Z,5.50
2018-09-26T01:13:28.431Z,5.93
2018-09-26T01:15:56.759Z,5.30
2018-09-26T01:18:25.068Z,5.70
2018-09-26T01:20:53.404Z,4.47
2018-09-26T01:23:21.719Z,5.30
2018-09-26T01:25:50.064Z,5.53
2018-09-26T01:28:18.368Z,5.53
2018-09-26T01:30:46.700Z,4.87
2018-09-26T01:33:15.020Z,5.70
2018-09-26T01:35:43.420Z,4.90
2018-09-26T01:38:11.728Z,4.93
2018-09-26T01:40:40.064Z,4.43
2018-09-26T01:43:08.364Z,4.70
2018-09-26T01:45:36.716Z,4.10
2018-09-26T01:48:05.045Z,4.23
2018-09-26T01:50:33.405Z,5.43
2018-09-26T01:53:01.729Z,4.80
2018-09-26T01:55:30.120Z,4.20
2018-09-26T01:57:58.449Z,4.67
2018-09-26T02:00:26.801Z,4.90
2018-09-26T02:02:55.124Z,5.23
2018-09-26T02:05:23.489Z,4.57
2018-09-26T02:07:51.993Z,4.30
2018-09-26T02:10:20.388Z,5.10
2018-09-26T02:12:48.719Z,4.73
2018-09-26T02:15:17.133Z,4.60
2018-09-26T02:17:45.489Z,4.33
2018-09-26T02:20:13.833Z,4.60
2018-09-26T02:22:42.208Z,4.90
2018-09-26T02:25:10.537Z,4.03
2018-09-26T02:27:38.905Z,4.97
2018-09-26T02:30:07.409Z,4.37
2018-09-26T02:32:35.748Z,4.87
2018-09-26T02:35:04.114Z,4.13
2018-09-26T02:37:33.477Z,4.10
2018-09-26T02:40:01.844Z,3.87
2018-09-26T02:42:30.213Z,4.13
2018-09-26T02:44:58.560Z,4.20
2018-09-26T02:47:26.963Z,4.17
2018-09-26T02:49:55.291Z,5.97
2018-09-26T02:52:23.640Z,5.70
2018-09-26T02:54:51.964Z,3.70
2018-09-26T02:57:20.315Z,4.47
2018-09-26T02:59:48.644Z,5.20
2018-09-26T03:02:17.036Z,4.00
2018-09-26T03:04:45.356Z,3.90
2018-09-26T03:07:13.683Z,4.30
2018-09-26T03:09:42.036Z,3.43
2018-09-26T03:12:10.355Z,4.13
2018-09-26T03:14:38.900Z,4.60
2018-09-26T03:17:07.320Z,3.73
2018-09-26T03:19:35.683Z,4.50
2018-09-26T03:22:04.349Z,4.40
2018-09-26T03:24:32.696Z,3.87
2018-09-26T03:27:01.016Z,4.70
2018-09-26T03:29:29.360Z,4.20
2018-09-26T03:31:57.681Z,3.70
2018-09-26T03:34:26.280Z,3.70
2018-09-26T03:36:54.602Z,4.90
2018-09-26T03:39:22.960Z,4.53
2018-09-26T03:41:51.292Z,3.93
2018-09-26T03:44:19.687Z,3.37
2018-09-26T03:46:48.000Z,4.43
2018-09-26T03:49:16.400Z,4.47
2018-09-26T03:51:44.718Z,3.90
2018-09-26T03:54:13.068Z,3.40
2018-09-26T03:56:41.396Z,4.07
2018-09-26T03:59:09.749Z,3.70
2018-09-26T04:01:38.080Z,3.30
2018-09-26T04:04:06.677Z,3.73
2018-09-26T04:06:35.000Z,3.80
2018-09-26T04:09:03.824Z,3.40
2018-09-26T04:11:32.160Z,3.60
2018-09-26T04:14:00.476Z,3.90
2018-09-26T04:16:28.856Z,3.67
2018-09-26T04:18:57.216Z,3.77
2018-09-26T04:21:25.551Z,4.90
2018-09-26T04:23:53.887Z,4.17
2018-09-26T04:26:22.304Z,3.87
2018-09-26T04:28:50.596Z,4.43
2018-09-26T04:31:18.956Z,3.80
2018-09-26T04:33:47.327Z,5.00
2018-09-26T04:36:15.647Z,4.27
2018-09-26T04:38:44.028Z,4.73
2018-09-26T04:41:12.356Z,3.80
2018-09-26T04:43:40.701Z,4.60
2018-09-26T04:46:09.026Z,4.43
2018-09-26T04:48:37.325Z,3.90
2018-09-26T04:51:05.678Z,4.40
2018-09-26T04:53:34.081Z,3.80
2018-09-26T04:56:02.362Z,4.00
2018-09-26T04:58:30.719Z,3.27
2018-09-26T05:00:59.096Z,4.30
2018-09-26T05:03:27.580Z,4.50
2018-09-26T05:05:55.905Z,4.23
2018-09-26T05:08:24.344Z,4.30
2018-09-26T05:10:52.612Z,4.37
2018-09-26T05:13:21.019Z,4.50
2018-09-26T05:15:49.383Z,5.03
2018-09-26T05:18:17.749Z,4.83
2018-09-26T05:20:46.072Z,5.43
2018-09-26T05:23:14.445Z,4.40
2018-09-26T05:25:42.751Z,5.37
2018-09-26T05:28:11.116Z,6.23
2018-09-26T05:30:39.440Z,7.70
2018-09-26T05:33:07.820Z,6.77
2018-09-26T05:35:36.135Z,5.80
2018-09-26T05:38:04.496Z,7.13
2018-09-26T05:40:32.816Z,8.80
2018-09-26T05:43:01.678Z,7.87
2018-09-26T05:45:30.088Z,8.03
2018-09-26T05:47:58.443Z,8.40
2018-09-26T05:50:26.799Z,9.40
2018-09-26T05:52:55.099Z,8.97
2018-09-26T05:55:23.423Z,10.37
2018-09-26T05:57:51.719Z,9.73
2018-09-26T06:00:20.047Z,10.63
2018-09-26T06:02:48.375Z,10.20
2018-09-26T06:05:16.710Z,12.97
2018-09-26T06:07:45.802Z,11.70
2018-09-26T06:10:14.139Z,11.57
2018-09-26T06:12:42.502Z,12.47
2018-09-26T06:15:10.821Z,13.53
2018-09-26T06:17:39.119Z,12.83
2018-09-26T06:20:08.734Z,13.87
2018-09-26T06:22:37.027Z,14.20
2018-09-26T06:25:05.563Z,13.10
2018-09-26T06:27:34.495Z,15.23
2018-09-26T06:30:03.063Z,15.40
2018-09-26T06:32:31.366Z,14.60
2018-09-26T06:34:59.731Z,14.17
2018-09-26T06:37:28.038Z,15.30
2018-09-26T06:39:56.651Z,16.33
2018-09-26T06:42:24.958Z,15.97
2018-09-26T06:44:53.251Z,15.83
2018-09-26T06:47:21.578Z,14.70
2018-09-26T06:49:49.924Z,14.43
2018-09-26T06:52:18.335Z,15.70
2018-09-26T06:54:46.689Z,14.80
2018-09-26T06:57:15.053Z,15.30
2018-09-26T06:59:43.376Z,13.50
2018-09-26T07:02:11.764Z,14.30
2018-09-26T07:04:40.092Z,13.60
2018-09-26T07:07:08.436Z,14.43
2018-09-26T07:09:36.772Z,14.30
2018-09-26T07:12:05.138Z,15.50
2018-09-26T07:14:33.456Z,14.33
2018-09-26T07:17:01.801Z,14.47
2018-09-26T07:19:30.141Z,12.73
2018-09-26T07:21:58.487Z,13.80
2018-09-26T07:24:26.847Z,13.27
2018-09-26T07:26:55.212Z,12.43
2018-09-26T07:29:23.560Z,14.17
2018-09-26T07:31:51.909Z,13.23
2018-09-26T07:34:25.433Z,13.10
2018-09-26T07:36:53.857Z,12.83
2018-09-26T07:39:22.202Z,13.40
2018-09-26T07:41:50.548Z,12.50
2018-09-26T07:44:18.894Z,13.80
2018-09-26T07:46:47.267Z,11.60
2018-09-26T07:49:15.768Z,12.93
2018-09-26T07:51:44.148Z,12.73
2018-09-26T07:54:12.540Z,12.60
2018-09-26T07:56:40.932Z,12.20
2018-09-26T07:59:09.360Z,12.27
2018-09-26T08:01:37.658Z,13.47
2018-09-26T08:04:06.020Z,13.47
2018-09-26T08:06:34.440Z,12.20
2018-09-26T08:09:02.845Z,10.90
2018-09-26T08:11:31.223Z,11.40
2018-09-26T08:13:59.572Z,12.23
2018-09-26T08:16:27.924Z,11.57
2018-09-26T08:18:56.281Z,11.47
2018-09-26T08:21:24.960Z,11.87
2018-09-26T08:23:53.371Z,13.23
2018-09-26T08:26:21.665Z,12.43
2018-09-26T08:28:50.021Z,12.87
2018-09-26T08:31:18.488Z,11.77
2018-09-26T08:33:46.868Z,11.70
2018-09-26T08:36:15.220Z,11.27
2018-09-26T08:38:43.585Z,12.17
2018-09-26T08:41:11.948Z,11.93
2018-09-26T08:43:40.337Z,12.50
2018-09-26T08:46:08.717Z,12.70
2018-09-26T08:48:37.101Z,11.60
2018-09-26T08:51:05.441Z,11.60
2018-09-26T08:53:33.878Z,11.73
2018-09-26T08:56:02.192Z,12.27
2018-09-26T08:58:30.564Z,12.70
2018-09-26T09:00:58.930Z,12.00
2018-09-26T09:03:27.300Z,12.00
2018-09-26T09:05:55.661Z,13.00
2018-09-26T09:08:24.032Z,11.93
2018-09-26T09:10:52.401Z,11.87
2018-09-26T09:13:20.740Z,12.13
2018-09-26T09:15:49.076Z,12.80
2018-09-26T09:18:17.867Z,12.30
2018-09-26T09:20:46.223Z,13.20
2018-09-26T09:23:14.565Z,11.20
2018-09-26T09:25:42.923Z,10.90
2018-09-26T09:28:11.279Z,12.30
2018-09-26T09:30:39.596Z,13.30
2018-09-26T09:33:07.947Z,13.03
2018-09-26T09:35:36.291Z,13.17
2018-09-26T09:38:04.645Z,12.93
2018-09-26T09:40:32.964Z,11.93
2018-09-26T09:43:01.289Z,12.87
2018-09-26T09:45:29.624Z,12.00
2018-09-26T09:47:57.959Z,12.57
2018-09-26T09:50:26.299Z,12.80
2018-09-26T09:52:54.959Z,12.23
2018-09-26T09:55:23.300Z,13.60
2018-09-26T09:57:51.612Z,12.90
2018-09-26T10:00:20.004Z,14.30
2018-09-26T10:02:48.455Z,12.17
2018-09-26T10:05:16.665Z,12.00
2018-09-26T10:07:44.984Z,10.03
2018-09-26T10:10:13.323Z,13.50
2018-09-26T10:12:41.658Z,13.37
2018-09-26T10:15:10.060Z,13.70
2018-09-26T10:17:38.459Z,12.93
2018-09-26T10:20:06.778Z,13.00
2018-09-26T10:22:35.100Z,13.20
2018-09-26T10:25:03.477Z,13.67
2018-09-26T10:27:31.815Z,12.80
2018-09-26T10:30:00.140Z,14.47
2018-09-26T10:32:28.478Z,13.70
2018-09-26T10:34:56.902Z,13.37
2018-09-26T10:37:25.204Z,13.80
2018-09-26T10:39:53.565Z,14.63
2018-09-26T10:42:21.892Z,13.67
2018-09-26T10:44:50.244Z,13.40
2018-09-26T10:47:19.465Z,12.97
2018-09-26T10:49:47.816Z,12.83
2018-09-26T10:52:16.156Z,13.83
2018-09-26T10:54:44.546Z,14.53
2018-09-26T10:57:12.884Z,14.07
2018-09-26T10:59:41.246Z,13.40
2018-09-26T11:02:09.692Z,14.00
2018-09-26T11:04:38.057Z,13.40
2018-09-26T11:07:06.347Z,14.30
2018-09-26T11:09:34.642Z,13.50
2018-09-26T11:12:02.930Z,14.10
2018-09-26T11:14:31.226Z,13.83
2018-09-26T11:16:59.568Z,14.47
2018-09-26T11:19:27.921Z,16.20
2018-09-26T11:21:56.302Z,14.40
2018-09-26T11:24:24.660Z,15.20
2018-09-26T11:26:52.988Z,13.83
2018-09-26T11:29:21.386Z,13.90
2018-09-26T11:31:49.732Z,13.90
2018-09-26T11:34:18.175Z,13.20
2018-09-26T11:36:46.521Z,13.90
2018-09-26T11:39:14.901Z,15.47
2018-09-26T11:41:43.299Z,14.67
2018-09-26T11:44:11.648Z,14.40
2018-09-26T11:46:39.977Z,13.27
2018-09-26T11:49:08.369Z,13.53
2018-09-26T11:51:36.710Z,13.13
2018-09-26T11:54:05.081Z,13.47
2018-09-26T11:56:33.420Z,14.33
2018-09-26T11:59:01.826Z,14.50
2018-09-26T12:01:30.161Z,13.87
2018-09-26T12:03:58.509Z,13.87
2018-09-26T12:06:26.850Z,14.00
2018-09-26T12:08:55.208Z,14.90
2018-09-26T12:11:23.619Z,15.20
2018-09-26T12:13:52.005Z,13.90
2018-09-26T12:16:20.319Z,13.93
2018-09-26T12:18:48.908Z,13.10
2018-09-26T12:21:17.320Z,13.57
2018-09-26T12:23:45.669Z,13.03
2018-09-26T12:26:14.040Z,13.63
2018-09-26T12:28:42.401Z,12.40
2018-09-26T12:31:10.733Z,13.90
2018-09-26T12:33:39.104Z,12.47
2018-09-26T12:36:07.728Z,11.20
2018-09-26T12:38:36.101Z,13.60
2018-09-26T12:41:04.453Z,13.40
2018-09-26T12:43:32.953Z,12.60
2018-09-26T12:46:01.571Z,12.97
2018-09-26T12:48:29.974Z,13.60
2018-09-26T12:50:58.328Z,12.27
2018-09-26T12:53:26.810Z,15.37
2018-09-26T12:55:55.105Z,13.80
2018-09-26T12:58:23.510Z,14.17
2018-09-26T13:00:51.825Z,11.87
2018-09-26T13:03:20.330Z,13.80
2018-09-26T13:05:48.692Z,13.03
2018-09-26T13:08:17.106Z,13.20
2018-09-26T13:10:45.436Z,12.87
2018-09-26T13:13:13.797Z,12.50
2018-09-26T13:15:42.168Z,13.00
2018-09-26T13:18:10.519Z,12.90
2018-09-26T13:20:38.898Z,12.30
2018-09-26T13:23:07.310Z,14.17
2018-09-26T13:25:35.842Z,12.80
2018-09-26T13:28:04.430Z,12.23
2018-09-26T13:30:32.760Z,11.97
2018-09-26T13:33:01.100Z,11.17
2018-09-26T13:35:29.464Z,12.93
2018-09-26T13:37:57.787Z,11.67
2018-09-26T13:40:26.213Z,12.43
2018-09-26T13:42:54.469Z,10.93
2018-09-26T13:45:22.853Z,12.67
2018-09-26T13:47:51.192Z,11.53
2018-09-26T13:50:19.645Z,11.80
2018-09-26T13:52:48.007Z,11.33
2018-09-26T13:55:16.381Z,13.33
2018-09-26T13:57:44.780Z,13.40
2018-09-26T14:00:16.074Z,14.50
2018-09-26T14:02:45.661Z,13.33
2018-09-26T14:05:14.033Z,14.20
2018-09-26T14:07:42.389Z,14.60
2018-09-26T14:10:10.777Z,13.80
2018-09-26T14:12:39.141Z,15.27
2018-09-26T14:15:07.845Z,14.97
2018-09-26T14:17:36.213Z,14.57
2018-09-26T14:20:04.706Z,14.00
2018-09-26T14:22:33.038Z,14.17
2018-09-26T14:25:01.402Z,14.07
2018-09-26T14:27:29.756Z,14.07
2018-09-26T14:29:58.121Z,13.50
2018-09-26T14:32:26.493Z,12.57
2018-09-26T14:34:54.852Z,13.67
2018-09-26T14:37:23.193Z,12.93
2018-09-26T14:39:51.633Z,12.87
2018-09-26T14:42:19.983Z,13.60
2018-09-26T14:44:48.368Z,13.63
2018-09-26T14:47:16.824Z,14.50
2018-09-26T14:49:45.199Z,13.30
2018-09-26T14:52:13.572Z,12.80
2018-09-26T14:54:42.181Z,10.70
2018-09-26T14:57:10.548Z,12.77
2018-09-26T14:59:38.897Z,11.97
2018-09-26T15:02:07.437Z,11.60
2018-09-26T15:04:35.820Z,11.23
2018-09-26T15:07:04.113Z,10.07
2018-09-26T15:09:32.464Z,11.93
2018-09-26T15:12:00.840Z,9.57
2018-09-26T15:14:29.187Z,11.13
2018-09-26T15:16:57.572Z,10.27
2018-09-26T15:19:26.205Z,10.63
2018-09-26T15:21:54.576Z,7.30
2018-09-26T15:24:23.005Z,7.87
2018-09-26T15:26:51.300Z,7.80
2018-09-26T15:29:19.632Z,7.47
2018-09-26T15:31:47.984Z,7.90
2018-09-26T15:34:16.319Z,6.40
2018-09-26T15:36:44.671Z,6.20
2018-09-26T15:39:12.971Z,5.70
2018-09-26T15:41:41.386Z,6.03
2018-09-26T15:44:09.658Z,6.30
2018-09-26T15:46:38.124Z,6.63
2018-09-26T15:49:07.007Z,6.00
2018-09-26T15:51:35.532Z,6.00
2018-09-26T15:54:03.868Z,4.60
2018-09-26T15:56:32.188Z,6.27
2018-09-26T15:59:01.232Z,5.27
2018-09-26T16:01:35.201Z,5.00
2018-09-26T16:04:03.495Z,4.37
2018-09-26T16:06:31.828Z,5.07
2018-09-26T16:09:00.110Z,4.60
2018-09-26T16:11:28.413Z,4.20
2018-09-26T16:13:56.744Z,4.83
2018-09-26T16:17:49.546Z,4.80
2018-09-26T16:20:17.964Z,4.30
2018-09-26T16:22:46.229Z,4.40
2018-09-26T16:25:14.581Z,3.60
2018-09-26T16:27:42.913Z,5.10
2018-09-26T16:30:11.633Z,4.20
2018-09-26T16:32:39.953Z,3.33
2018-09-26T16:37:58.656Z,4.00
2018-09-26T16:40:27.095Z,4.20
2018-09-26T16:42:55.327Z,4.00
2018-09-26T16:45:23.672Z,4.10
2018-09-26T16:47:52.011Z,4.77
2018-09-26T16:50:20.363Z,4.53
2018-09-26T16:52:48.872Z,4.00
2018-09-26T16:55:17.783Z,3.37
2018-09-26T16:57:46.200Z,3.57
2018-09-26T17:00:14.577Z,4.40
2018-09-26T17:02:42.936Z,4.70
2018-09-26T17:05:11.480Z,5.20
2018-09-26T17:07:39.818Z,5.00
2018-09-26T17:10:08.232Z,5.83
2018-09-26T17:12:36.743Z,4.10
2018-09-26T17:15:05.363Z,4.90
2018-09-26T17:17:33.689Z,5.03
2018-09-26T17:20:02.269Z,5.77
2018-09-26T17:22:30.747Z,4.40
2018-09-26T17:24:59.092Z,3.90
2018-09-26T17:27:27.596Z,4.40
2018-09-26T17:29:55.937Z,4.60
2018-09-26T17:32:25.632Z,4.70
2018-09-26T17:34:54.093Z,5.87
2018-09-26T17:37:22.425Z,4.70
2018-09-26T17:39:50.750Z,5.43
2018-09-26T17:42:19.430Z,5.00
2018-09-26T17:44:47.810Z,6.23
2018-09-26T17:47:16.083Z,5.80
2018-09-26T17:49:44.409Z,5.30
2018-09-26T17:52:12.718Z,5.70
2018-09-26T17:54:41.222Z,5.73
2018-09-26T17:57:09.630Z,7.73
2018-09-26T17:59:37.935Z,5.60
2018-09-26T18:02:06.248Z,7.60
2018-09-26T18:04:34.607Z,5.33
2018-09-26T18:07:03.800Z,6.23
2018-09-26T18:09:32.114Z,5.90
2018-09-26T18:12:00.432Z,5.80
2018-09-26T18:14:28.716Z,6.20
2018-09-26T18:16:57.007Z,6.40
2018-09-26T18:19:25.310Z,7.20
2018-09-26T18:21:53.583Z,8.87
2018-09-26T18:24:22.760Z,6.60
2018-09-26T18:26:51.125Z,6.93
2018-09-26T18:29:19.804Z,6.73
2018-09-26T18:31:48.136Z,8.80
2018-09-26T18:34:16.489Z,9.23
2018-09-26T18:36:44.816Z,8.43
2018-09-26T18:39:13.150Z,7.87
2018-09-26T18:41:41.508Z,8.60
2018-09-26T18:44:09.823Z,7.77
2018-09-26T18:46:38.144Z,6.17
2018-09-26T18:49:06.508Z,7.33
2018-09-26T18:51:34.813Z,7.40
2018-09-26T18:54:03.135Z,8.50
2018-09-26T18:56:31.488Z,8.30
2018-09-26T18:58:59.828Z,7.60
2018-09-26T19:01:28.705Z,7.50
2018-09-26T19:03:57.119Z,8.10
2018-09-26T19:06:25.639Z,9.10
2018-09-26T19:08:54.118Z,7.50
2018-09-26T19:11:22.948Z,8.20
2018-09-26T19:13:51.303Z,8.70
2018-09-26T19:16:19.624Z,9.40
2018-09-26T19:18:48.043Z,9.00
2018-09-26T19:21:16.408Z,9.67
2018-09-26T19:23:44.904Z,10.37
2018-09-26T19:26:13.363Z,10.47
2018-09-26T19:28:41.684Z,9.43
2018-09-26T19:31:10.008Z,9.77
2018-09-26T19:33:38.424Z,9.73
2018-09-26T19:36:06.771Z,10.43
2018-09-26T19:38:35.325Z,11.37
2018-09-26T19:41:03.717Z,10.20
2018-09-26T19:43:32.037Z,10.13
2018-09-26T19:46:00.413Z,11.47
2018-09-26T19:48:28.878Z,11.33
2018-09-26T19:50:57.363Z,10.70
2018-09-26T19:53:26.684Z,12.83
2018-09-26T19:55:55.114Z,11.43
2018-09-26T19:58:24.673Z,10.70
2018-09-26T20:00:52.869Z,10.87
2018-09-26T20:03:21.233Z,10.43
2018-09-26T20:05:49.557Z,10.27
2018-09-26T20:08:17.890Z,11.63
2018-09-26T20:10:46.268Z,9.23
2018-09-26T20:13:14.653Z,10.07
2018-09-26T20:15:42.984Z,11.37
2018-09-26T20:18:11.380Z,10.23
2018-09-26T20:20:39.717Z,11.90
2018-09-26T20:23:08.129Z,10.00
2018-09-26T20:25:36.512Z,9.80
2018-09-26T20:28:05.120Z,10.47
2018-09-26T20:30:33.484Z,10.43
2018-09-26T20:33:01.927Z,15.20
2018-09-26T20:35:30.281Z,13.23
2018-09-26T20:37:58.568Z,13.73
2018-09-26T20:40:26.916Z,12.73
2018-09-26T20:42:55.287Z,12.00
2018-09-26T20:45:23.705Z,14.20
2018-09-26T20:47:52.029Z,15.80
2018-09-26T20:50:20.345Z,15.70
2018-09-26T20:52:48.677Z,17.70
2018-09-26T20:55:17.049Z,15.60
2018-09-26T20:57:46.600Z,16.07
2018-09-26T21:00:14.932Z,16.33
2018-09-26T21:02:43.513Z,16.47
2018-09-26T21:05:12.037Z,14.83
2018-09-26T21:07:40.382Z,16.03
2018-09-26T21:10:09.113Z,15.00
2018-09-26T21:12:37.432Z,15.90
2018-09-26T21:15:06.121Z,16.10
2018-09-26T21:17:35.303Z,14.90
2018-09-26T21:20:03.812Z,14.90
2018-09-26T21:22:32.292Z,14.67
2018-09-26T21:25:01.024Z,13.53
2018-09-26T21:27:29.355Z,13.27
2018-09-26T21:29:58.157Z,13.20
2018-09-26T21:32:26.496Z,13.37
2018-09-26T21:34:54.857Z,14.07
2018-09-26T21:37:23.585Z,14.50
2018-09-26T21:39:51.957Z,13.37
2018-09-26T21:42:20.304Z,13.63
2018-09-26T21:44:48.625Z,13.13
2018-09-26T21:47:17.156Z,13.50
2018-09-26T21:49:45.514Z,13.67
2018-09-26T21:52:13.845Z,13.47
2018-09-26T21:54:42.204Z,12.70
2018-09-26T21:57:10.557Z,14.23
2018-09-26T21:59:38.881Z,12.67
2018-09-26T22:02:07.321Z,12.70
2018-09-26T22:04:35.644Z,12.87
2018-09-26T22:07:03.972Z,14.33
2018-09-26T22:09:32.452Z,12.53
2018-09-26T22:12:00.899Z,12.50
2018-09-26T22:14:29.236Z,11.63
2018-09-26T22:16:57.588Z,12.77
2018-09-26T22:19:25.937Z,11.97
2018-09-26T22:21:54.272Z,11.50
2018-09-26T22:24:22.660Z,10.43
2018-09-26T22:26:51.013Z,9.70
2018-09-26T22:29:19.354Z,9.70
2018-09-26T22:31:47.957Z,9.13
2018-09-26T22:34:16.277Z,9.93
2018-09-26T22:36:44.637Z,10.07
2018-09-26T22:39:12.972Z,10.03
2018-09-26T22:41:41.292Z,8.73
2018-09-26T22:44:09.663Z,9.37
2018-09-26T22:46:38.522Z,10.37
2018-09-26T22:49:06.865Z,8.20
2018-09-26T22:51:35.200Z,9.00
2018-09-26T22:54:03.683Z,8.87
2018-09-26T22:56:32.003Z,9.50
2018-09-26T22:59:00.385Z,9.53
2018-09-26T23:01:28.744Z,8.73
2018-09-26T23:03:57.071Z,8.80
2018-09-26T23:06:25.400Z,9.17
2018-09-26T23:08:53.992Z,8.30
2018-09-26T23:11:22.611Z,9.33
2018-09-26T23:13:50.927Z,8.77
2018-09-26T23:16:19.299Z,9.17
2018-09-26T23:18:47.635Z,8.63
2018-09-26T23:21:15.956Z,8.83
2018-09-26T23:23:44.293Z,8.60
2018-09-26T23:26:12.611Z,9.07
2018-09-26T23:28:40.940Z,8.27
2018-09-26T23:31:09.315Z,7.60
2018-09-26T23:33:37.873Z,8.80
2018-09-26T23:36:06.250Z,7.60
2018-09-26T23:38:34.616Z,8.37
2018-09-26T23:41:02.949Z,9.00
2018-09-26T23:43:31.285Z,8.17
2018-09-26T23:45:59.756Z,7.77
2018-09-26T23:48:28.112Z,8.80
2018-09-26T23:50:56.452Z,8.97
2018-09-26T23:53:24.831Z,8.97
2018-09-26T23:55:53.139Z,8.90
2018-09-26T23:58:21.485Z,8.70
